createdAt,value
2018-07-31T00:00:57.206Z,3.75
2018-07-31T00:02:33.755Z,4.00
2018-07-31T00:04:10.368Z,6.50
2018-07-31T00:05:48.643Z,3.25
2018-07-31T00:07:27.149Z,2.50
2018-07-31T00:09:03.875Z,3.50
2018-07-31T00:10:43.539Z,3.50
2018-07-31T00:12:20.334Z,3.25
2018-07-31T00:14:02.659Z,4.25
2018-07-31T00:15:39.502Z,4.00
2018-07-31T00:17:17.659Z,3.00
2018-07-31T00:18:56.374Z,4.00
2018-07-31T00:20:35.209Z,3.00
2018-07-31T00:22:12.278Z,4.00
2018-07-31T00:23:55.559Z,4.25
2018-07-31T00:25:32.167Z,3.75
2018-07-31T00:27:11.398Z,4.75
2018-07-31T00:28:48.918Z,4.00
2018-07-31T00:30:27.901Z,4.00
2018-07-31T00:32:05.221Z,5.50
2018-07-31T00:33:43.570Z,3.25
2018-07-31T00:35:20.088Z,5.00
2018-07-31T00:36:58.373Z,3.50
2018-07-31T00:38:35.707Z,3.00
2018-07-31T00:40:13.227Z,3.75
2018-07-31T00:41:49.694Z,4.00
2018-07-31T00:43:29.202Z,4.25
2018-07-31T00:45:08.166Z,3.00
2018-07-31T00:46:45.347Z,4.00
2018-07-31T00:48:21.907Z,3.00
2018-07-31T00:51:29.693Z,3.50
2018-07-31T00:53:06.703Z,4.00
2018-07-31T00:54:43.520Z,3.75
2018-07-31T00:56:20.289Z,4.75
2018-07-31T00:57:56.997Z,3.00
2018-07-31T00:59:35.653Z,4.00
2018-07-31T01:01:13.012Z,3.50
2018-07-31T01:02:50.341Z,4.75
2018-07-31T01:04:26.699Z,4.00
2018-07-31T01:06:04.751Z,3.50
2018-07-31T01:07:41.456Z,5.00
2018-07-31T01:09:18.588Z,3.75
2018-07-31T01:10:55.120Z,4.00
2018-07-31T01:12:32.448Z,4.00
2018-07-31T01:14:10.302Z,4.00
2018-07-31T01:15:48.585Z,3.50
2018-07-31T01:17:25.267Z,3.50
2018-07-31T01:19:04.619Z,3.75
2018-07-31T01:20:41.333Z,4.25
2018-07-31T01:22:19.624Z,5.00
2018-07-31T01:23:57.063Z,4.25
2018-07-31T01:25:33.615Z,4.50
2018-07-31T01:27:10.108Z,4.00
2018-07-31T01:28:47.908Z,4.25
2018-07-31T01:30:25.202Z,6.00
2018-07-31T01:32:03.099Z,5.75
2018-07-31T01:33:41.003Z,4.50
2018-07-31T01:35:17.668Z,4.75
2018-07-31T01:36:54.204Z,5.00
2018-07-31T01:38:32.390Z,5.00
2018-07-31T01:40:09.006Z,4.00
2018-07-31T01:41:45.496Z,6.25
2018-07-31T01:43:24.612Z,5.00
2018-07-31T01:45:01.780Z,6.00
2018-07-31T01:46:40.715Z,4.00
2018-07-31T01:48:17.176Z,5.00
2018-07-31T01:49:53.799Z,4.00
2018-07-31T01:51:30.623Z,5.00
2018-07-31T01:53:08.214Z,5.00
2018-07-31T01:54:45.721Z,5.00
2018-07-31T01:56:22.860Z,5.75
2018-07-31T01:57:59.738Z,4.75
2018-07-31T01:59:38.095Z,4.00
2018-07-31T02:01:15.026Z,4.75
2018-07-31T02:02:51.502Z,5.50
2018-07-31T02:04:28.437Z,4.50
2018-07-31T02:06:06.112Z,4.50
2018-07-31T02:07:42.675Z,4.75
2018-07-31T02:09:19.208Z,5.75
2018-07-31T02:10:55.731Z,5.50
2018-07-31T02:12:32.420Z,5.00
2018-07-31T02:14:09.338Z,5.75
2018-07-31T02:15:46.655Z,5.00
2018-07-31T02:17:24.024Z,5.50
2018-07-31T02:19:00.553Z,5.00
2018-07-31T02:20:37.111Z,5.50
2018-07-31T02:22:13.608Z,4.25
2018-07-31T02:23:50.602Z,6.25
2018-07-31T02:25:27.088Z,6.25
2018-07-31T02:27:04.114Z,6.00
2018-07-31T02:28:40.628Z,7.75
2018-07-31T02:30:23.064Z,6.25
2018-07-31T02:31:59.632Z,7.25
2018-07-31T02:33:36.149Z,6.00
2018-07-31T02:35:12.702Z,7.75
2018-07-31T02:36:52.650Z,8.50
2018-07-31T02:38:29.227Z,8.25
2018-07-31T02:40:06.243Z,7.00
2018-07-31T02:41:42.801Z,6.00
2018-07-31T02:43:19.862Z,5.75
2018-07-31T02:44:56.307Z,6.75
2018-07-31T02:46:34.298Z,9.50
2018-07-31T02:48:10.992Z,7.50
2018-07-31T02:49:48.373Z,7.00
2018-07-31T02:51:26.090Z,6.75
2018-07-31T02:53:02.946Z,6.25
2018-07-31T02:54:41.572Z,6.00
2018-07-31T02:56:18.161Z,6.50
2018-07-31T02:57:55.156Z,12.75
2018-07-31T02:59:31.659Z,6.75
2018-07-31T03:01:08.585Z,6.50
2018-07-31T03:02:45.522Z,8.00
2018-07-31T03:04:22.130Z,6.00
2018-07-31T03:05:59.519Z,6.00
2018-07-31T03:07:36.033Z,8.00
2018-07-31T03:09:15.300Z,7.50
2018-07-31T03:10:54.313Z,6.25
2018-07-31T03:12:34.052Z,4.50
2018-07-31T03:14:10.958Z,7.75
2018-07-31T03:15:48.464Z,6.00
2018-07-31T03:17:25.148Z,6.00
2018-07-31T03:19:01.989Z,7.00
2018-07-31T03:20:44.908Z,7.75
2018-07-31T03:22:21.859Z,6.75
2018-07-31T03:23:58.394Z,6.50
2018-07-31T03:25:34.883Z,7.25
2018-07-31T03:27:11.528Z,6.25
2018-07-31T03:28:49.176Z,7.00
2018-07-31T03:30:25.411Z,8.00
2018-07-31T03:32:02.008Z,8.25
2018-07-31T03:33:38.547Z,7.00
2018-07-31T03:35:15.572Z,7.00
2018-07-31T03:36:52.026Z,8.00
2018-07-31T03:38:28.566Z,7.25
2018-07-31T03:40:05.534Z,10.75
2018-07-31T03:41:42.055Z,14.50
2018-07-31T03:43:18.681Z,6.50
2018-07-31T03:44:56.390Z,7.00
2018-07-31T03:46:33.480Z,7.00
2018-07-31T03:48:10.336Z,6.00
2018-07-31T03:49:46.900Z,7.75
2018-07-31T03:51:23.473Z,6.50
2018-07-31T03:53:00.864Z,7.75
2018-07-31T03:54:37.740Z,6.00
2018-07-31T03:56:15.320Z,5.50
2018-07-31T03:57:53.548Z,7.00
2018-07-31T03:59:29.983Z,7.25
2018-07-31T04:01:08.061Z,8.00
2018-07-31T04:02:44.502Z,6.50
2018-07-31T04:04:21.006Z,7.00
2018-07-31T04:05:58.009Z,8.00
2018-07-31T04:07:34.749Z,8.25
2018-07-31T04:09:13.429Z,6.00
2018-07-31T04:10:50.310Z,8.50
2018-07-31T04:12:26.886Z,7.75
2018-07-31T04:14:04.043Z,9.75
2018-07-31T04:15:41.412Z,7.50
2018-07-31T04:17:18.214Z,7.50
2018-07-31T04:18:55.561Z,7.00
2018-07-31T04:20:32.620Z,8.25
2018-07-31T04:22:09.564Z,8.00
2018-07-31T04:23:46.142Z,8.25
2018-07-31T04:25:24.220Z,10.00
2018-07-31T04:27:00.683Z,8.00
2018-07-31T04:28:39.956Z,10.50
2018-07-31T04:30:21.451Z,8.00
2018-07-31T04:32:00.219Z,9.75
2018-07-31T04:33:45.522Z,8.75
2018-07-31T04:35:26.117Z,9.00
2018-07-31T04:37:05.889Z,10.25
2018-07-31T04:38:42.393Z,9.00
2018-07-31T04:40:20.496Z,11.00
2018-07-31T04:41:57.997Z,10.50
2018-07-31T04:43:35.055Z,10.00
2018-07-31T04:45:13.742Z,9.00
2018-07-31T04:46:50.630Z,10.00
2018-07-31T04:48:27.728Z,10.00
2018-07-31T04:50:09.960Z,8.50
2018-07-31T04:51:46.883Z,8.50
2018-07-31T04:53:23.759Z,10.00
2018-07-31T04:55:04.292Z,9.25
2018-07-31T04:56:41.233Z,8.25
2018-07-31T04:58:19.935Z,7.00
2018-07-31T04:59:58.888Z,7.75
2018-07-31T05:01:36.173Z,9.25
2018-07-31T05:03:12.567Z,9.00
2018-07-31T05:04:53.356Z,9.00
2018-07-31T05:06:31.631Z,9.00
2018-07-31T05:08:08.298Z,12.75
2018-07-31T05:09:44.767Z,11.50
2018-07-31T05:11:28.735Z,10.25
2018-07-31T05:13:05.889Z,11.25
2018-07-31T05:14:43.273Z,10.00
2018-07-31T05:16:20.046Z,10.00
2018-07-31T05:17:56.588Z,9.50
2018-07-31T05:19:33.436Z,11.25
2018-07-31T05:21:10.060Z,17.50
2018-07-31T05:22:47.043Z,10.25
2018-07-31T05:24:24.263Z,9.50
2018-07-31T05:26:04.695Z,10.00
2018-07-31T05:27:41.998Z,10.25
2018-07-31T05:29:18.467Z,11.00
2018-07-31T05:30:55.165Z,11.00
2018-07-31T05:33:59.400Z,11.25
2018-07-31T05:35:35.824Z,11.25
2018-07-31T05:37:12.254Z,10.75
2018-07-31T05:38:49.255Z,10.00
2018-07-31T05:40:25.729Z,11.50
2018-07-31T05:42:02.299Z,10.50
2018-07-31T05:43:39.374Z,11.75
2018-07-31T05:45:18.267Z,11.75
2018-07-31T05:46:54.986Z,12.75
2018-07-31T05:48:32.152Z,11.00
2018-07-31T05:50:09.663Z,10.50
2018-07-31T05:51:46.605Z,10.50
2018-07-31T05:53:23.238Z,11.75
2018-07-31T05:55:01.049Z,11.50
2018-07-31T05:56:37.553Z,9.50
2018-07-31T05:58:14.404Z,11.25
2018-07-31T05:59:50.942Z,10.25
2018-07-31T06:01:27.835Z,12.75
2018-07-31T06:03:04.311Z,10.00
2018-07-31T06:04:43.210Z,10.75
2018-07-31T06:06:19.667Z,12.50
2018-07-31T06:07:56.160Z,10.75
2018-07-31T06:09:33.467Z,11.75
2018-07-31T06:11:11.087Z,12.25
2018-07-31T06:12:48.100Z,13.00
2018-07-31T06:14:24.661Z,11.75
2018-07-31T06:16:01.418Z,12.25
2018-07-31T06:17:38.334Z,12.75
2018-07-31T06:19:14.772Z,11.00
2018-07-31T06:20:51.251Z,11.50
2018-07-31T06:22:28.376Z,10.50
2018-07-31T06:24:06.824Z,9.75
2018-07-31T06:25:43.232Z,9.50
2018-07-31T06:27:21.143Z,12.75
2018-07-31T06:28:58.502Z,10.50
2018-07-31T06:30:36.582Z,12.00
2018-07-31T06:32:13.055Z,9.75
2018-07-31T06:33:51.145Z,10.75
2018-07-31T06:35:29.020Z,11.50
2018-07-31T06:37:07.166Z,11.00
2018-07-31T06:38:43.583Z,12.25
2018-07-31T06:40:21.753Z,13.50
2018-07-31T06:41:58.121Z,11.75
2018-07-31T06:43:34.540Z,12.00
2018-07-31T06:45:12.614Z,12.75
2018-07-31T06:46:50.628Z,11.75
2018-07-31T06:48:29.472Z,9.50
2018-07-31T06:50:09.714Z,12.25
2018-07-31T06:51:46.188Z,11.50
2018-07-31T06:53:24.233Z,18.50
2018-07-31T06:55:01.011Z,14.50
2018-07-31T06:56:38.171Z,14.50
2018-07-31T06:58:14.643Z,12.75
2018-07-31T06:59:51.921Z,12.75
2018-07-31T07:01:29.001Z,13.00
2018-07-31T07:03:05.630Z,11.00
2018-07-31T07:04:42.103Z,11.00
2018-07-31T07:06:19.089Z,11.25
2018-07-31T07:07:57.678Z,13.00
2018-07-31T07:09:34.186Z,12.00
2018-07-31T07:11:10.682Z,11.75
2018-07-31T07:12:48.639Z,11.25
2018-07-31T07:14:25.371Z,11.00
2018-07-31T07:16:02.068Z,13.00
2018-07-31T07:17:40.429Z,12.75
2018-07-31T07:19:16.868Z,13.50
2018-07-31T07:20:54.468Z,13.75
2018-07-31T07:22:31.953Z,13.00
2018-07-31T07:24:09.068Z,13.00
2018-07-31T07:25:46.880Z,13.00
2018-07-31T07:27:23.753Z,12.00
2018-07-31T07:29:01.185Z,12.75
2018-07-31T07:30:37.520Z,14.00
2018-07-31T07:32:15.078Z,14.50
2018-07-31T07:33:51.656Z,11.75
2018-07-31T07:35:28.110Z,12.50
2018-07-31T07:37:04.639Z,12.25
2018-07-31T07:38:41.897Z,12.00
2018-07-31T07:40:20.553Z,11.25
2018-07-31T07:41:58.047Z,11.25
2018-07-31T07:43:36.215Z,12.25
2018-07-31T07:45:12.694Z,11.25
2018-07-31T07:46:53.918Z,12.00
2018-07-31T07:48:32.156Z,13.25
2018-07-31T07:50:09.484Z,12.00
2018-07-31T07:51:46.846Z,10.75
2018-07-31T07:53:25.001Z,11.25
2018-07-31T07:55:02.297Z,10.00
2018-07-31T07:56:40.524Z,10.25
2018-07-31T07:58:18.680Z,11.00
2018-07-31T07:59:55.701Z,11.00
2018-07-31T08:01:33.065Z,12.50
2018-07-31T08:03:09.480Z,9.75
2018-07-31T08:04:46.702Z,10.00
2018-07-31T08:06:23.458Z,12.25
2018-07-31T08:08:01.069Z,11.00
2018-07-31T08:09:38.433Z,12.50
2018-07-31T08:11:15.443Z,9.25
2018-07-31T08:12:54.936Z,9.00
2018-07-31T08:14:32.010Z,10.25
2018-07-31T08:16:14.526Z,10.00
2018-07-31T08:17:52.845Z,9.00
2018-07-31T08:19:29.303Z,8.25
2018-07-31T08:21:07.378Z,8.75
2018-07-31T08:22:44.974Z,10.50
2018-07-31T08:24:23.951Z,10.00
2018-07-31T08:26:00.417Z,8.00
2018-07-31T08:27:38.533Z,9.25
2018-07-31T08:29:16.043Z,8.25
2018-07-31T08:30:54.643Z,9.00
2018-07-31T08:32:34.628Z,9.00
2018-07-31T08:34:12.763Z,7.75
2018-07-31T08:35:49.414Z,9.75
2018-07-31T08:37:26.332Z,9.75
2018-07-31T08:39:04.042Z,6.75
2018-07-31T08:40:43.611Z,8.50
2018-07-31T08:42:21.627Z,9.25
2018-07-31T08:43:58.371Z,9.25
2018-07-31T08:45:37.519Z,8.00
2018-07-31T08:47:14.291Z,8.50
2018-07-31T08:50:31.902Z,7.50
2018-07-31T08:52:08.548Z,7.00
2018-07-31T08:53:45.124Z,7.25
2018-07-31T08:55:22.167Z,7.00
2018-07-31T08:56:59.321Z,6.75
2018-07-31T08:58:36.747Z,7.75
2018-07-31T09:00:13.353Z,5.50
2018-07-31T09:01:50.962Z,5.75
2018-07-31T09:03:27.859Z,8.00
2018-07-31T09:05:05.092Z,6.75
2018-07-31T09:06:43.546Z,5.00
2018-07-31T09:08:21.075Z,6.00
2018-07-31T09:09:58.586Z,3.75
2018-07-31T09:11:36.640Z,5.00
2018-07-31T09:13:13.702Z,5.00
2018-07-31T09:14:54.303Z,5.50
2018-07-31T09:16:31.308Z,4.00
2018-07-31T09:18:08.311Z,5.00
2018-07-31T09:19:44.858Z,3.50
2018-07-31T09:21:21.304Z,3.25
2018-07-31T09:22:59.231Z,4.50
2018-07-31T09:24:36.618Z,3.00
2018-07-31T09:26:13.021Z,3.00
2018-07-31T09:27:50.201Z,2.50
2018-07-31T09:29:28.271Z,5.50
2018-07-31T09:31:10.785Z,3.25
2018-07-31T09:32:52.813Z,3.25
2018-07-31T09:34:29.214Z,2.00
2018-07-31T09:36:07.375Z,3.00
2018-07-31T09:37:44.358Z,2.00
2018-07-31T09:39:20.722Z,2.00
2018-07-31T09:40:59.336Z,2.00
2018-07-31T09:42:36.247Z,2.75
2018-07-31T09:44:14.095Z,3.25
2018-07-31T09:45:52.215Z,2.25
2018-07-31T09:47:28.530Z,2.00
2018-07-31T09:49:06.727Z,2.75
2018-07-31T09:50:43.678Z,4.00
2018-07-31T09:52:21.125Z,3.00
2018-07-31T09:54:00.621Z,3.00
2018-07-31T09:55:37.467Z,3.50
2018-07-31T09:57:14.928Z,3.25
2018-07-31T09:58:51.336Z,3.25
2018-07-31T10:00:35.883Z,3.00
2018-07-31T10:02:13.405Z,5.00
2018-07-31T10:05:20.088Z,3.75
2018-07-31T10:06:58.025Z,3.00
2018-07-31T10:08:34.809Z,2.00
2018-07-31T10:10:11.422Z,5.75
2018-07-31T10:11:53.039Z,5.00
2018-07-31T10:13:29.998Z,3.75
2018-07-31T10:15:07.012Z,4.00
2018-07-31T10:18:33.121Z,3.00
2018-07-31T10:20:10.187Z,4.00
2018-07-31T10:21:49.340Z,2.00
2018-07-31T10:23:28.690Z,4.00
2018-07-31T10:25:36.707Z,2.00
2018-07-31T10:27:14.632Z,3.00
2018-07-31T10:28:52.780Z,2.75
2018-07-31T10:30:31.787Z,2.00
2018-07-31T10:32:10.499Z,2.50
2018-07-31T10:33:50.836Z,2.00
2018-07-31T10:35:28.198Z,2.00
2018-07-31T10:37:06.473Z,2.00
2018-07-31T10:38:43.005Z,2.00
2018-07-31T10:40:24.074Z,1.25
2018-07-31T10:42:03.553Z,2.25
2018-07-31T10:43:41.447Z,2.75
2018-07-31T10:45:20.697Z,3.25
2018-07-31T10:46:57.652Z,1.00
2018-07-31T10:48:35.222Z,1.50
2018-07-31T10:50:12.284Z,2.00
2018-07-31T10:51:51.856Z,2.50
2018-07-31T10:53:30.151Z,2.00
2018-07-31T10:55:09.432Z,3.00
2018-07-31T10:56:47.710Z,3.00
2018-07-31T10:58:24.217Z,3.00
2018-07-31T11:00:01.961Z,2.25
2018-07-31T11:01:39.442Z,2.00
2018-07-31T11:03:19.624Z,1.75
2018-07-31T11:04:57.650Z,3.00
2018-07-31T11:06:41.825Z,2.00
2018-07-31T11:08:18.867Z,1.50
2018-07-31T11:10:13.469Z,2.25
2018-07-31T11:11:51.802Z,2.00
2018-07-31T11:13:39.460Z,2.75
2018-07-31T11:17:11.473Z,2.25
2018-07-31T11:18:54.201Z,2.75
2018-07-31T11:20:36.660Z,2.00
2018-07-31T11:22:14.842Z,3.00
2018-07-31T11:23:54.124Z,3.00
2018-07-31T11:25:33.217Z,3.25
2018-07-31T11:27:12.078Z,2.25
2018-07-31T11:28:49.123Z,3.00
2018-07-31T11:30:27.380Z,2.00
2018-07-31T11:32:07.053Z,2.50
2018-07-31T11:33:46.562Z,2.75
2018-07-31T11:35:30.237Z,3.00
2018-07-31T11:37:11.535Z,2.50
2018-07-31T11:38:48.290Z,2.50
2018-07-31T11:40:29.771Z,2.00
2018-07-31T11:42:11.937Z,2.00
2018-07-31T11:43:56.597Z,2.00
2018-07-31T11:45:33.751Z,2.25
2018-07-31T11:47:25.256Z,2.50
2018-07-31T11:49:12.546Z,2.75
2018-07-31T11:50:50.224Z,2.00
2018-07-31T11:52:31.895Z,2.50
2018-07-31T11:54:09.837Z,3.00
2018-07-31T11:55:46.825Z,3.25
2018-07-31T11:57:25.942Z,2.00
2018-07-31T11:59:05.807Z,2.25
2018-07-31T12:00:48.082Z,2.00
2018-07-31T12:02:33.925Z,2.00
2018-07-31T12:04:13.766Z,2.00
2018-07-31T12:05:51.417Z,5.00
2018-07-31T12:07:31.241Z,3.00
2018-07-31T12:09:15.106Z,2.75
2018-07-31T12:10:52.591Z,4.25
2018-07-31T12:12:33.537Z,3.50
2018-07-31T12:14:12.801Z,2.25
2018-07-31T12:15:54.170Z,3.00
2018-07-31T12:17:34.042Z,2.75
2018-07-31T12:19:14.345Z,2.00
2018-07-31T12:20:53.589Z,3.25
2018-07-31T12:22:32.547Z,2.25
2018-07-31T12:24:21.234Z,2.50
2018-07-31T12:26:09.657Z,4.00
2018-07-31T12:28:00.397Z,2.50
2018-07-31T12:29:43.941Z,3.75
2018-07-31T12:31:25.411Z,2.25
2018-07-31T12:33:04.709Z,2.00
2018-07-31T12:34:53.022Z,3.00
2018-07-31T12:36:31.015Z,3.00
2018-07-31T12:38:09.276Z,2.00
2018-07-31T12:39:47.796Z,3.75
2018-07-31T12:41:27.986Z,2.00
2018-07-31T12:43:05.679Z,3.00
2018-07-31T12:44:43.220Z,2.50
2018-07-31T12:46:23.343Z,3.00
2018-07-31T12:48:01.661Z,2.25
2018-07-31T12:49:39.897Z,2.50
2018-07-31T12:51:20.355Z,2.00
2018-07-31T12:52:59.488Z,2.00
2018-07-31T12:54:46.282Z,2.25
2018-07-31T12:56:26.300Z,2.50
2018-07-31T12:58:06.289Z,3.00
2018-07-31T13:00:01.761Z,2.00
2018-07-31T13:01:39.384Z,3.00
2018-07-31T13:03:16.840Z,2.00
2018-07-31T13:04:55.283Z,3.75
2018-07-31T13:06:34.362Z,2.00
2018-07-31T13:08:14.305Z,2.00
2018-07-31T13:09:53.331Z,3.00
2018-07-31T13:11:32.516Z,3.75
2018-07-31T13:14:37.872Z,2.75
2018-07-31T13:16:16.096Z,3.25
2018-07-31T13:17:59.361Z,4.00
2018-07-31T13:19:40.824Z,2.75
2018-07-31T13:21:18.076Z,2.00
2018-07-31T13:22:59.175Z,2.75
2018-07-31T13:24:36.351Z,6.50
2018-07-31T13:26:14.282Z,3.25
2018-07-31T13:27:54.406Z,2.50
2018-07-31T13:29:41.627Z,3.00
2018-07-31T13:31:23.879Z,2.00
2018-07-31T13:33:13.379Z,10.50
2018-07-31T13:34:51.335Z,3.00
2018-07-31T13:36:29.448Z,3.00
2018-07-31T13:38:06.799Z,2.00
2018-07-31T13:39:49.587Z,2.50
2018-07-31T13:41:27.079Z,2.00
2018-07-31T13:43:05.243Z,1.00
2018-07-31T13:44:48.605Z,3.75
2018-07-31T13:46:27.998Z,1.50
2018-07-31T13:48:07.873Z,2.00
2018-07-31T13:49:48.983Z,2.00
2018-07-31T13:51:29.997Z,1.25
2018-07-31T13:53:13.128Z,2.00
2018-07-31T13:54:51.988Z,1.50
2018-07-31T13:56:30.166Z,3.00
2018-07-31T13:58:10.618Z,2.75
2018-07-31T13:59:48.269Z,1.00
2018-07-31T14:01:27.196Z,2.00
2018-07-31T14:03:04.796Z,2.75
2018-07-31T14:04:59.275Z,1.00
2018-07-31T14:06:42.435Z,1.50
2018-07-31T14:08:20.835Z,2.25
2018-07-31T14:10:10.769Z,2.50
2018-07-31T14:13:32.628Z,1.50
2018-07-31T14:15:31.506Z,1.00
2018-07-31T14:17:20.166Z,1.00
2018-07-31T14:19:24.184Z,0.50
2018-07-31T14:21:04.474Z,3.25
2018-07-31T14:22:42.473Z,2.25
2018-07-31T14:24:21.317Z,2.25
2018-07-31T14:25:58.870Z,1.50
2018-07-31T14:27:37.728Z,1.25
2018-07-31T14:29:17.371Z,1.25
2018-07-31T14:31:00.198Z,1.25
2018-07-31T14:32:39.722Z,1.00
2018-07-31T14:34:28.992Z,1.00
2018-07-31T14:36:06.529Z,1.00
2018-07-31T14:37:45.896Z,1.00
2018-07-31T14:39:27.206Z,1.00
2018-07-31T14:41:05.527Z,1.00
2018-07-31T14:42:42.914Z,1.25
2018-07-31T14:44:25.421Z,1.00
2018-07-31T14:46:07.260Z,0.75
2018-07-31T14:47:53.829Z,1.00
2018-07-31T14:49:45.740Z,1.00
2018-07-31T14:51:23.431Z,1.25
2018-07-31T14:53:02.120Z,1.00
2018-07-31T14:54:49.122Z,0.50
2018-07-31T14:56:25.542Z,1.00
2018-07-31T14:58:02.130Z,1.00
2018-07-31T14:59:38.832Z,0.50
2018-07-31T15:01:17.012Z,0.75
2018-07-31T15:02:54.772Z,0.00
2018-07-31T15:04:34.954Z,1.50
2018-07-31T15:06:13.873Z,1.25
2018-07-31T15:07:52.855Z,0.00
2018-07-31T15:09:31.097Z,0.00
2018-07-31T15:11:08.813Z,0.00
2018-07-31T15:12:46.742Z,0.00
2018-07-31T15:14:24.650Z,1.00
2018-07-31T15:16:06.052Z,1.00
2018-07-31T15:17:43.608Z,1.00
2018-07-31T15:19:20.225Z,0.00
2018-07-31T15:20:58.340Z,1.00
2018-07-31T15:22:35.303Z,1.50
2018-07-31T15:24:12.890Z,10.50
2018-07-31T15:25:50.368Z,2.00
2018-07-31T15:27:27.866Z,1.00
2018-07-31T15:29:05.445Z,1.00
2018-07-31T15:30:44.171Z,1.00
2018-07-31T15:32:22.104Z,0.00
2018-07-31T15:34:00.390Z,0.00
2018-07-31T15:35:38.875Z,0.50
2018-07-31T15:37:16.750Z,0.00
2018-07-31T15:38:53.411Z,0.75
2018-07-31T15:40:46.837Z,1.00
2018-07-31T15:42:24.318Z,0.75
2018-07-31T15:44:04.818Z,0.50
2018-07-31T15:45:43.042Z,0.25
2018-07-31T15:47:20.298Z,0.00
2018-07-31T15:48:58.981Z,0.00
2018-07-31T15:50:35.525Z,1.00
2018-07-31T15:52:13.276Z,0.50
2018-07-31T15:54:07.214Z,0.25
2018-07-31T15:55:46.426Z,0.00
2018-07-31T15:57:24.803Z,0.00
2018-07-31T15:59:01.833Z,0.00
2018-07-31T16:00:40.141Z,0.25
2018-07-31T16:02:19.272Z,1.25
2018-07-31T16:03:58.036Z,0.00
2018-07-31T16:05:37.089Z,0.00
2018-07-31T16:07:16.265Z,1.00
2018-07-31T16:08:56.694Z,1.00
2018-07-31T16:10:36.311Z,1.00
2018-07-31T16:12:13.901Z,0.00
2018-07-31T16:13:56.091Z,1.00
2018-07-31T16:15:38.148Z,0.00
2018-07-31T16:17:15.678Z,0.00
2018-07-31T16:18:52.577Z,0.75
2018-07-31T16:20:30.290Z,1.75
2018-07-31T16:22:08.823Z,1.75
2018-07-31T16:23:46.567Z,0.50
2018-07-31T16:25:30.396Z,1.50
2018-07-31T16:27:51.805Z,1.00
2018-07-31T16:29:31.994Z,0.00
2018-07-31T16:31:17.956Z,1.00
2018-07-31T16:32:57.412Z,2.00
2018-07-31T16:34:34.822Z,1.00
2018-07-31T16:36:13.134Z,2.50
2018-07-31T16:37:51.561Z,1.00
2018-07-31T16:39:32.203Z,0.75
2018-07-31T16:41:10.995Z,0.00
2018-07-31T16:42:48.789Z,0.50
2018-07-31T16:44:26.734Z,0.00
2018-07-31T16:46:07.832Z,1.00
2018-07-31T16:47:44.712Z,0.25
2018-07-31T16:51:03.852Z,0.75
2018-07-31T16:52:49.761Z,1.00
2018-07-31T16:54:26.555Z,1.00
2018-07-31T16:56:03.339Z,0.75
2018-07-31T16:57:48.529Z,1.00
2018-07-31T16:59:25.606Z,1.50
2018-07-31T17:01:08.405Z,1.50
2018-07-31T17:02:56.343Z,2.25
2018-07-31T17:04:35.115Z,1.00
2018-07-31T17:06:14.353Z,0.50
2018-07-31T17:07:55.484Z,1.00
2018-07-31T17:09:42.217Z,1.75
2018-07-31T17:11:21.066Z,1.75
2018-07-31T17:12:59.761Z,1.25
2018-07-31T17:14:38.567Z,2.00
2018-07-31T17:16:16.520Z,0.50
2018-07-31T17:17:56.018Z,1.00
2018-07-31T17:19:36.483Z,1.00
2018-07-31T17:21:15.356Z,0.75
2018-07-31T17:22:54.568Z,1.00
2018-07-31T17:24:32.596Z,1.25
2018-07-31T17:26:12.447Z,1.00
2018-07-31T17:27:50.471Z,0.75
2018-07-31T17:29:30.578Z,0.75
2018-07-31T17:31:14.245Z,1.25
2018-07-31T17:32:54.057Z,2.00
2018-07-31T17:34:32.818Z,2.50
2018-07-31T17:36:11.746Z,2.00
2018-07-31T17:37:51.399Z,3.00
2018-07-31T17:39:44.312Z,3.75
2018-07-31T17:41:23.169Z,2.50
2018-07-31T17:43:20.247Z,2.75
2018-07-31T17:45:05.535Z,3.00
2018-07-31T17:46:44.667Z,3.00
2018-07-31T17:48:23.263Z,4.25
2018-07-31T17:50:01.363Z,3.50
2018-07-31T17:51:38.370Z,3.00
2018-07-31T17:53:16.596Z,4.00
2018-07-31T17:54:59.912Z,4.00
2018-07-31T17:56:37.304Z,3.00
2018-07-31T17:58:14.417Z,3.75
2018-07-31T17:59:52.112Z,5.00
2018-07-31T18:01:30.690Z,4.50
2018-07-31T18:03:07.744Z,4.00
2018-07-31T18:04:44.513Z,3.00
2018-07-31T18:06:22.986Z,3.00
2018-07-31T18:08:03.225Z,4.00
2018-07-31T18:09:41.888Z,3.75
2018-07-31T18:11:18.675Z,4.00
2018-07-31T18:12:56.024Z,4.00
2018-07-31T18:14:35.942Z,5.00
2018-07-31T18:16:16.551Z,5.00
2018-07-31T18:17:55.588Z,4.00
2018-07-31T18:19:34.293Z,6.00
2018-07-31T18:21:12.414Z,4.75
2018-07-31T18:22:51.871Z,5.00
2018-07-31T18:24:33.553Z,5.25
2018-07-31T18:26:11.291Z,5.75
2018-07-31T18:27:59.376Z,6.25
2018-07-31T18:29:52.292Z,5.50
2018-07-31T18:31:39.264Z,5.25
2018-07-31T18:33:35.247Z,5.00
2018-07-31T18:35:23.518Z,8.00
2018-07-31T18:37:06.660Z,23.00
2018-07-31T18:38:45.545Z,9.75
2018-07-31T18:40:30.217Z,5.00
2018-07-31T18:42:12.888Z,7.75
2018-07-31T18:43:56.534Z,5.00
2018-07-31T18:45:37.419Z,6.00
2018-07-31T18:47:14.951Z,5.25
2018-07-31T18:48:56.453Z,4.00
2018-07-31T18:50:33.246Z,5.75
2018-07-31T18:52:11.097Z,4.25
2018-07-31T18:53:52.231Z,12.75
2018-07-31T18:55:34.539Z,6.00
2018-07-31T18:57:13.833Z,5.25
2018-07-31T18:58:53.039Z,5.75
2018-07-31T19:00:32.375Z,6.50
2018-07-31T19:02:12.468Z,5.00
2018-07-31T19:03:50.985Z,5.00
2018-07-31T19:05:29.723Z,5.50
2018-07-31T19:07:08.524Z,5.75
2018-07-31T19:08:46.776Z,5.00
2018-07-31T19:10:26.040Z,5.50
2018-07-31T19:12:05.620Z,7.00
2018-07-31T19:13:43.240Z,5.75
2018-07-31T19:15:24.631Z,7.00
2018-07-31T19:17:04.539Z,5.75
2018-07-31T19:18:43.512Z,5.00
2018-07-31T19:20:24.612Z,6.50
2018-07-31T19:22:05.900Z,6.50
2018-07-31T19:23:44.582Z,6.75
2018-07-31T19:25:23.719Z,5.75
2018-07-31T19:27:02.233Z,6.00
2018-07-31T19:28:39.955Z,6.75
2018-07-31T19:30:18.265Z,5.75
2018-07-31T19:31:57.496Z,8.00
2018-07-31T19:33:35.948Z,14.00
2018-07-31T19:35:14.341Z,6.25
2018-07-31T19:36:51.666Z,6.50
2018-07-31T19:38:28.545Z,5.00
2018-07-31T19:40:07.447Z,4.00
2018-07-31T19:41:45.057Z,5.50
2018-07-31T19:44:58.380Z,6.75
2018-07-31T19:46:38.943Z,7.00
2018-07-31T19:48:17.340Z,6.00
2018-07-31T19:49:59.349Z,6.00
2018-07-31T19:51:39.091Z,6.00
2018-07-31T19:53:19.283Z,6.25
2018-07-31T19:54:58.562Z,6.00
2018-07-31T19:56:38.498Z,6.50
2018-07-31T19:58:17.274Z,6.50
2018-07-31T19:59:56.137Z,5.00
2018-07-31T20:01:36.250Z,5.75
2018-07-31T20:03:19.847Z,6.00
2018-07-31T20:04:59.243Z,6.75
2018-07-31T20:06:39.199Z,6.00
2018-07-31T20:08:19.279Z,7.00
2018-07-31T20:09:58.515Z,14.50
2018-07-31T20:11:36.683Z,6.00
2018-07-31T20:13:20.420Z,6.00
2018-07-31T20:15:05.901Z,9.00
2018-07-31T20:16:47.543Z,5.00
2018-07-31T20:18:26.541Z,4.75
2018-07-31T20:20:07.944Z,5.75
2018-07-31T20:21:46.568Z,5.00
2018-07-31T20:23:27.657Z,5.75
2018-07-31T20:25:08.644Z,6.00
2018-07-31T20:26:47.399Z,5.00
2018-07-31T20:28:27.565Z,5.00
2018-07-31T20:30:09.675Z,6.00
2018-07-31T20:31:49.645Z,6.00
2018-07-31T20:33:26.466Z,8.00
2018-07-31T20:35:09.487Z,5.00
2018-07-31T20:36:52.840Z,6.00
2018-07-31T20:38:30.469Z,6.50
2018-07-31T20:40:08.631Z,5.25
2018-07-31T20:41:46.667Z,5.50
2018-07-31T20:43:24.403Z,5.00
2018-07-31T20:45:01.718Z,5.25
2018-07-31T20:46:40.270Z,5.00
2018-07-31T20:48:19.920Z,5.50
2018-07-31T20:50:03.885Z,5.75
2018-07-31T20:51:42.796Z,4.00
2018-07-31T20:53:20.686Z,7.00
2018-07-31T20:55:02.092Z,7.00
2018-07-31T20:56:46.551Z,6.25
2018-07-31T20:58:23.486Z,5.50
2018-07-31T21:00:05.423Z,5.50
2018-07-31T21:01:45.481Z,6.25
2018-07-31T21:03:24.529Z,4.50
2018-07-31T21:05:05.544Z,5.00
2018-07-31T21:06:42.503Z,5.00
2018-07-31T21:08:20.303Z,6.75
2018-07-31T21:10:04.532Z,5.00
2018-07-31T21:11:45.241Z,3.50
2018-07-31T21:13:32.837Z,7.25
2018-07-31T21:15:15.461Z,6.00
2018-07-31T21:16:52.839Z,5.75
2018-07-31T21:18:33.396Z,5.00
2018-07-31T21:20:11.595Z,5.00
2018-07-31T21:21:49.494Z,4.00
2018-07-31T21:23:28.051Z,4.00
2018-07-31T21:25:05.944Z,4.25
2018-07-31T21:26:42.782Z,4.00
2018-07-31T21:28:26.883Z,4.00
2018-07-31T21:30:08.510Z,5.00
2018-07-31T21:31:47.131Z,4.00
2018-07-31T21:33:24.750Z,4.75
2018-07-31T21:35:06.229Z,4.00
2018-07-31T21:36:44.601Z,3.75
2018-07-31T21:38:22.694Z,4.75
2018-07-31T21:40:00.430Z,4.00
2018-07-31T21:41:39.642Z,4.00
2018-07-31T21:43:18.181Z,3.75
2018-07-31T21:44:55.367Z,5.00
2018-07-31T21:46:39.162Z,4.00
2018-07-31T21:48:19.628Z,5.75
2018-07-31T21:49:56.719Z,4.00
2018-07-31T21:51:39.262Z,4.00
2018-07-31T21:53:19.605Z,5.00
2018-07-31T21:54:58.521Z,4.00
2018-07-31T21:56:37.436Z,4.25
2018-07-31T21:58:15.882Z,5.75
2018-07-31T21:59:54.470Z,4.25
2018-07-31T22:01:31.194Z,4.75
2018-07-31T22:03:09.426Z,5.50
2018-07-31T22:04:48.365Z,5.00
2018-07-31T22:06:29.502Z,5.00
2018-07-31T22:08:08.189Z,4.75